• Join FlightAware (Why Join?)
  • Login
  • US Flag 
09:14AM EDT


 

Airport Tracker/Info


-or-


 

Live Flight TrackerFlight Track Log ✈ GJS3707 ✈ 13-Jun-2013 ✈ KBOI - KORD

Flight Track Log - Related Links

Times and Time Zones

All times are in EDT time to prevent confusion due to time zone crossing. See the GJS3707 flight status page for this flight to view local times or setup timezone preferences in your user account.

Time Position Orientation Groundspeed Altitude Reporting Facility
EDT Latitude Longitude Course Direction KTS MPH feet Rate Location/Type
03:23PM 43.5917 -116.3264 288° West 189 217 6,300  Level Salt Lake Center
03:24PM 43.6194 -116.3989 298° West 213 245 8,600 1,740 Climbing Salt Lake Center
03:25PM 43.6622 -115.5294 78° East  Level FlightAware Approximate
03:26PM 43.6801 -115.3528 83° East  Level FlightAware Approximate
03:26PM 43.6382 -116.1201 85° East  Level Estimated
03:27PM 43.7056 -115.1836 81° East  Level FlightAware Approximate
03:27PM 43.7003 -116.0686 85° East 354 407 13,600  Level Salt Lake Center
03:28PM 43.7172 -115.9333 80° East 371 427 15,300 1,980 Climbing Salt Lake Center
03:29PM 43.7350 -115.7711 81° East 382 440 17,700 1,860 Climbing Salt Lake Center
03:30PM 43.7522 -115.6292 80° East 390 449 19,200 1,500 Climbing Salt Lake Center
03:31PM 43.7725 -115.4539 81° East 413 475 20,800 1,260 Climbing Salt Lake Center
03:32PM 43.7892 -115.2981 82° East 426 490 21,900 1,200 Climbing Salt Lake Center
03:33PM 43.8117 -115.1081 81° East 444 511 23,400 1,380 Climbing Salt Lake Center
03:34PM 43.8289 -114.9436 82° East 451 519 24,800 1,260 Climbing Salt Lake Center
03:35PM 43.8494 -114.7494 82° East 458 527 26,100 1,080 Climbing Salt Lake Center
03:36PM 43.8681 -114.5794 81° East 468 539 27,100 960 Climbing Salt Lake Center
03:37PM 43.8894 -114.3733 82° East 483 556 28,200 960 Climbing Salt Lake Center
03:38PM 43.9069 -114.1944 82° East 488 562 29,200 900 Climbing Salt Lake Center
03:39PM 43.9253 -114.0158 82° East 490 564 30,100 960 Climbing Salt Lake Center
03:40PM 43.9450 -113.8172 82° East 490 564 31,200 1,080 Climbing Salt Lake Center
03:41PM 43.9664 -113.6069 82° East 493 567 32,400 960 Climbing Salt Lake Center
03:43PM 43.9797 -113.4247 84° East 495 570 33,300 960 Climbing Salt Lake Center
03:44PM 43.9994 -113.2156 82° East 492 566 34,400 780 Climbing Salt Lake Center
03:45PM 44.0164 -113.0369 82° East 489 563 35,000 240 Climbing Salt Lake Center
03:46PM 44.0353 -112.8219 83° East 502 578 35,000  Level Salt Lake Center
03:47PM 44.0522 -112.6328 83° East 515 593 35,000  Level Salt Lake Center
03:48PM 44.0703 -112.4092 84° East 521 600 35,000  Level Salt Lake Center
03:49PM 44.0867 -112.2222 83° East 514 592 35,000 540 Level Salt Lake Center
03:50PM 44.0900 -112.0158 89° East 482 555 36,200 840 Climbing Salt Lake Center
03:51PM 44.0917 -111.8433 89° East 471 542 36,800 360 Climbing Salt Lake Center
03:52PM 44.0925 -111.6411 90° East 472 543 37,000 60 Climbing Salt Lake Center
03:53PM 44.0928 -111.4636 90° East 479 551 37,000  Level Salt Lake Center
03:54PM 44.0942 -111.2528 89° East 489 563 37,000  Level Salt Lake Center
03:55PM 44.0939 -111.0700 90° East 495 570 37,000  Level Salt Lake Center
03:56PM 44.0944 -110.8564 90° East 497 572 37,100  Climbing Salt Lake Center
03:57PM 44.0931 -110.6747 91° East 495 570 37,000 -60 Descending Salt Lake Center
03:58PM 44.0942 -110.4617 90° East 495 570 37,000  Level Salt Lake Center
03:59PM 44.0917 -110.2811 91° East 491 565 37,000  Level Salt Lake Center
04:00PM 44.0900 -110.1017 91° East 487 560 37,000  Level Salt Lake Center
04:01PM 44.0883 -109.8908 91° East 495 570 37,000  Level Salt Lake Center
04:02PM 44.0869 -109.7033 91° East 497 572 37,000  Level Salt Lake Center
04:03PM 44.0836 -109.4872 91° East 502 578 37,000  Level Salt Lake Center
04:04PM 44.0800 -109.3019 91° East 500 575 37,000  Level Salt Lake Center
04:05PM 44.0769 -109.0861 91° East 502 578 37,000  Level Salt Lake Center
04:06PM 44.0739 -108.9014 91° East 499 574 37,000  Level Salt Lake Center
04:07PM 44.0689 -108.6867 92° East 498 573 37,000  Level Salt Lake Center
04:08PM 44.0656 -108.5017 91° East 499 574 37,000  Level Salt Lake Center
04:09PM 44.0614 -108.2892 91° East 498 573 37,000  Level Salt Lake Center
04:10PM 44.0564 -108.1056 92° East 496 571 37,000  Level Salt Lake Center
04:11PM 44.0514 -107.8933 92° East 493 567 37,000  Level Salt Lake Center
04:13PM 44.0453 -107.7108 93° East 494 568 37,000  Level Salt Lake Center
04:14PM 44.0383 -107.4989 93° East 493 567 37,000  Level Salt Lake Center
04:15PM 44.0331 -107.3164 92° East 493 567 37,000  Level Salt Lake Center
04:16PM 44.0269 -107.1192 92° East 490 564 37,000  Level Salt Lake Center
04:16PM 44.0211 -106.9986 94° East 487 560 37,000  Level Denver Center
04:17PM 44.0147 -106.7892 92° East 486 559 37,000  Level Denver Center
04:18PM 44.0128 -106.7297 93° East 487 560 37,000  Level Salt Lake Center
04:18PM 44.0072 -106.6092 94° East 487 560 37,000  Level Denver Center
04:19PM 44.0008 -106.4311 93° East 483 556 37,000  Level Denver Center
04:20PM 44.0003 -106.3422 90° East 485 558 37,000  Level Salt Lake Center
04:21PM 44.0033 -106.1603 89° East 489 563 37,000  Level Salt Lake Center
04:21PM 44.0031 -106.0367 90° East 492 566 37,000  Level Denver Center
04:22PM 44.0047 -105.8231 89° East 494 568 37,000  Level Denver Center
04:23PM 44.0042 -105.6389 90° East 495 570 37,000  Level Denver Center
04:25PM 44.0036 -105.4181 90° East 502 578 37,000  Level Denver Center
04:26PM 44.0039 -105.1947 90° East 509 586 37,000  Level Denver Center
04:27PM 44.0031 -104.9717 90° East 514 592 37,000  Level Denver Center
04:28PM 44.0022 -104.7800 90° East 515 593 37,000  Level Denver Center
04:29PM 44.0011 -104.5586 90° East 515 593 37,000  Level Denver Center
04:30PM 43.9986 -104.3717 91° East 511 588 37,000  Level Denver Center
04:31PM 43.9967 -104.1661 91° East 492 566 37,000  Level Denver Center
04:32PM 43.9933 -103.9828 91° East 492 566 37,000  Level Denver Center
04:33PM 43.9900 -103.7728 91° East 489 563 37,000  Level Denver Center
04:34PM 43.9889 -103.5944 90° East 485 558 37,000  Level Denver Center
04:35PM 43.9853 -103.3831 91° East 488 562 37,000  Level Denver Center
04:36PM 43.9814 -103.2019 92° East 490 564 37,000  Level Denver Center
04:37PM 43.9775 -103.0200 92° East 492 566 37,000  Level Denver Center
04:38PM 43.9711 -102.8133 92° East 491 565 37,000  Level Denver Center
04:39PM 43.9658 -102.6228 92° East 494 568 37,000  Level Denver Center
04:40PM 43.9578 -102.4308 93° East 497 572 37,000  Level Denver Center
04:41PM 43.9517 -102.2389 92° East 499 574 37,000  Level Denver Center
04:42PM 43.9411 -102.0011 93° East 511 588 37,000  Level Denver Center
04:43PM 43.9342 -101.8033 93° East 514 592 37,000  Level Denver Center
04:44PM 43.9322 -101.6106 91° East 507 583 37,000  Level Denver Center
04:45PM 43.9233 -101.4108 93° East 517 595 37,000  Level Denver Center
04:46PM 43.9128 -101.1686 93° East 519 597 37,000  Level Minneapolis Center
04:48PM 43.9047 -100.9669 93° East 522 601 37,000  Level Minneapolis Center
04:49PM 43.8975 -100.7675 93° East 523 602 37,000  Level Minneapolis Center
04:50PM 43.8883 -100.5631 93° East 529 609 37,000  Level Minneapolis Center
04:51PM 43.8772 -100.3558 94° East 538 619 37,000  Level Minneapolis Center
04:52PM 43.8689 -100.1522 93° East 536 617 37,000  Level Minneapolis Center
04:53PM 43.8564 -99.9078 94° East 533 613 37,000  Level Minneapolis Center
04:54PM 43.8442 -99.7019 95° East 537 618 37,000  Level Minneapolis Center
04:55PM 43.8333 -99.4986 94° East 535 616 37,000  Level Minneapolis Center
04:56PM 43.8225 -99.2925 94° East 538 619 37,000  Level Minneapolis Center
04:57PM 43.8108 -99.0897 94° East 534 615 37,000  Level Minneapolis Center
04:58PM 43.7967 -98.8461 95° East 533 613 37,000  Level Minneapolis Center
04:59PM 43.7842 -98.6444 95° East 531 611 37,000  Level Minneapolis Center
05:01PM 43.7564 -98.2331 95° East 526 605 37,000  Level Minneapolis Center
05:02PM 43.7433 -98.0333 95° East 524 603 37,000  Level Minneapolis Center
05:03PM 43.7292 -97.8344 96° East 523 602 37,000  Level Minneapolis Center
05:04PM 43.7150 -97.6344 96° East 525 604 37,000  Level Minneapolis Center
05:05PM 43.7003 -97.4367 96° East 522 601 37,000  Level Minneapolis Center
05:06PM 43.6822 -97.1975 96° East 525 604 37,000  Level Minneapolis Center
05:07PM 43.6672 -96.9975 96° East 527 606 37,000  Level Minneapolis Center
05:08PM 43.6506 -96.8006 97° East 522 601 37,100  Climbing Minneapolis Center
05:09PM 43.6233 -96.6061 101° East 520 598 37,000 -60 Descending Minneapolis Center
05:10PM 43.5947 -96.4103 101° East 526 605 37,000  Level Minneapolis Center
05:11PM 43.5603 -96.1747 101° East 528 608 37,000  Level Minneapolis Center
05:12PM 43.5308 -95.9794 102° East 525 604 37,000  Level Minneapolis Center
05:13PM 43.5008 -95.7831 102° East 530 610 37,000  Level Minneapolis Center
05:14PM 43.4703 -95.5872 102° East 528 608 37,000  Level Minneapolis Center
05:15PM 43.4392 -95.3908 102° East 530 610 37,000  Level Minneapolis Center
05:17PM 43.4025 -95.1556 102° East 528 608 37,000 -60 Level Minneapolis Center
05:18PM 43.3711 -94.9594 102° East 528 608 36,900 -540 Descending Minneapolis Center
05:19PM 43.3386 -94.7597 103° East 533 613 35,900 -960 Descending Minneapolis Center
05:20PM 43.3058 -94.5625 103° East 532 612 35,000 -480 Descending Minneapolis Center
05:21PM 43.2728 -94.3658 103° East 530 610 35,000  Level Minneapolis Center
05:22PM 43.2392 -94.1656 103° East 527 606 35,000  Level Minneapolis Center
05:23PM 43.1978 -93.9294 103° East 534 615 35,000  Level Minneapolis Center
05:24PM 43.1647 -93.7272 103° East 543 625 35,000  Level Minneapolis Center
05:25PM 43.1308 -93.5247 103° East 548 631 35,000  Level Minneapolis Center
05:26PM 43.0928 -93.3231 104° East 551 634 35,000  Level Minneapolis Center
05:27PM 43.0808 -93.1158 94° East 550 633 35,000  Level Minneapolis Center
05:28PM 43.0644 -92.8700 95° East 547 629 35,000  Level Minneapolis Center
05:29PM 43.0500 -92.6692 96° East 540 621 35,000  Level Minneapolis Center
05:30PM 43.0358 -92.4719 96° East 531 611 35,000 -420 Level Minneapolis Center
05:31PM 43.0261 -92.3544 96° East 526 605 34,400 -1,020 Descending Chicago Center
05:32PM 43.0111 -92.1547 96° East 530 610 33,400 -1,020 Descending Chicago Center
05:32PM 43.0067 -92.0744 94° East 530 610 33,000 -960 Descending Minneapolis Center
05:33PM 42.9922 -91.8717 95° East 535 616 32,000 -1,140 Descending Minneapolis Center
05:34PM 42.9800 -91.7100 96° East 535 616 31,200 -1,140 Descending Chicago Center
05:35PM 42.9619 -91.5106 97° East 520 598 30,200 -960 Descending Chicago Center
05:35PM 42.9306 -91.4406 121° Southeast 527 606 29,800 -1,020 Descending Minneapolis Center
05:36PM 42.8544 -91.3778 149° Southeast 534 615 29,200 -540 Descending Chicago Center
05:37PM 42.7283 -91.2881 152° Southeast 509 586 29,000 -120 Descending Chicago Center
05:38PM 42.6181 -91.1717 142° Southeast 517 595 29,000  Level Chicago Center
05:39PM 42.5881 -90.9900 103° East 516 594 29,000 -180 Level Chicago Center
05:40PM 42.5847 -90.7992 91° East 514 592 28,700 -780 Descending Chicago Center
05:41PM 42.5831 -90.5767 91° East 498 573 27,500 -1,320 Descending Chicago Center
05:42PM 42.5822 -90.3947 90° East 489 563 26,000 -1,500 Descending Chicago Center
05:43PM 42.5794 -90.2181 91° East 475 547 24,400 -1,740 Descending Chicago Center
05:44PM 42.5769 -90.0447 91° East 466 536 22,400 -1,920 Descending Chicago Center
05:45PM 42.5728 -89.8686 92° East 446 513 20,500 -1,980 Descending Chicago Center
05:46PM 42.5689 -89.6811 92° East 430 495 18,400 -1,860 Descending Chicago Center
05:47PM 42.5664 -89.5261 91° East 414 476 16,700 -1,560 Descending Chicago Center
05:48PM 42.5631 -89.3769 92° East 400 460 15,200 -1,260 Descending Chicago Center
05:49PM 42.5608 -89.2494 91° East 342 394 14,200 -1,020 Descending Chicago Center
05:50PM 42.5581 -89.1283 92° East 325 374 13,200 -1,080 Descending Chicago Center
05:51PM 42.5242 -88.9942 109° East 326 375 12,000 -600 Descending Chicago Center
05:52PM 42.5097 -88.8803 100° East 316 364 12,000  Level Chicago Center
05:53PM 42.5325 -88.7681 75° East 314 361 12,000 -480 Level Chicago Center
05:54PM 42.4931 -88.6603 116° Southeast 322 371 11,100 -1,020 Descending Chicago Center
05:55PM 42.4303 -88.5761 135° Southeast 318 366 9,900 -1,020 Descending Chicago Center
05:56PM 42.3669 -88.4700 129° Southeast 315 362 9,000 -720 Descending Chicago Center
05:57PM 42.3300 -88.3775 118° Southeast 311 358 8,500 -540 Descending Chicago Center
05:59PM 42.2547 -88.3364 158° South 309 356 8,000 -300 Descending Chicago Center
06:00PM 42.1569 -88.3239 175° South 297 342 8,000  Level Chicago Center
06:01PM 42.0886 -88.3428 192° South 261 300 8,000 -60 Level Chicago Center
06:02PM 42.0244 -88.3583 190° South 235 270 7,900 -720 Descending Chicago Center
06:03PM 41.9706 -88.3303 159° South 226 260 6,600 -1,200 Descending Chicago Center
06:04PM 41.9642 -88.2572 97° East 200 230 5,400 -1,200 Descending Chicago Center
06:05PM 41.9689 -88.1728 86° East 193 222 4,200 -1,080 Descending Chicago Center
06:05PM 41.9667 -88.1167 93° East 176 203 3,500 -900 Descending Chicago TRACON
06:06PM 41.9667 -88.0667 90° East 160 184 2,700 -840 Descending Chicago TRACON